Alderson, WV

1:21 PM EDT on September 02, 2014 (GMT -0400)
kc8ysl kc8zec Organ Cave | Change Station
CLOSE
Current Station
Personal Weather Station
Location: Organ Cave, WV
Elevation: 2310 ft
Nearby Weather Stations

Elev 2310 ft 37.71 °N, 80.42 °W | Updated 1 second ago

Partly Cloudy
Partly Cloudy
82.4 °F
Feels Like 86 °F
N
3.0
Wind Variable Wind from WSW
Gusts 6.0 mph

Today
High -- | Low -- °F
--% Chance of Precip.
Yesterday
High -- | Low -- °F
Precip. -- in
6:53 AM 7:50 PM
First Quarter, 53% visible
Pressure 30.11 in
Visibility 10.0 miles
Clouds Scattered Clouds 3900 ft
Scattered Clouds 4500 ft
Scattered Clouds 5000 ft
Heat Index 86 °F
Dew Point 69 °F
Humidity 64%
Rainfall 0.00 in
Snow Depth Not available.
UV 8 out of 12
Pollen 9.20 out of 12
Air Quality Not available.
Flu Activity Not available.
METAR KLWB 021655Z AUTO 24012G16KT 10SM SCT039 SCT045 SCT050 29/18 A3011 RMK AO2 LTG DSNT NW T02940177

More Conditions Fewer Conditions

Pressure 30.11 in
Visibility 10.0 miles
Clouds Scattered Clouds 3900 ft
Scattered Clouds 4500 ft
Scattered Clouds 5000 ft
Heat Index 86 °F
Dew Point 69 °F
Humidity 64%
Rainfall 0.00 in
Snow Depth Not available.
UV 8 out of 12
Pollen 9.20 out of 12
Air Quality Not available.
Flu Activity Not available.
METAR KLWB 021655Z AUTO 24012G16KT 10SM SCT039 SCT045 SCT050 29/18 A3011 RMK AO2 LTG DSNT NW T02940177

More Conditions Fewer Conditions

10-Day Weather Forecast

Almanac

Astronomy

Sep. 02, 2014 Rise Set
Actual Time 6:53 AM EDT 7:50 PM EDT
Civil Twilight 6:26 AM EDT 8:17 PM EDT
Nautical Twilight 5:54 AM EDT 8:48 PM EDT
Astronomical Twilight 5:21 AM EDT 9:21 PM EDT
Moon 2:28 PM EDT No Moon Set
Length of Visible Light 13h 50m
Length of Day
12h 56m
Tomorrow will be 2m 20s shorter.
First Quarter, 53% of the Moon is Illuminated
Today
First Quarter
Sep 8
Full
Sep 15
Last Quarter
Sep 24
New
Oct 1
First Quarter

Today's Extremes

State Highs State Lows

Community

WunderPhotos

Upload Photos

1,749,721 photos uploaded!

WunderBlogs® & News

By Dr. Jeff Masters
Director of Meteorology, Weather Underground
By Kari Strenfel
Meteorologist, Weather Underground
By Christopher C. Burt
Weather Historian, Weather Underground
September 2, 2014
September 2, 2014
September 2, 2014

Nearby

Snow Depth

Station Depth Elevation
No new snow has been reported.

Earthquake Activity

City Distance Mag. Time & Date
No recent earthquake activity has been reported nearby.
Minimum magnitude displayed is 2.5.

Coastal Water Temperatures

Place Temperature
No Stations Reporting

Nearby Weather Stations